createdAt,value
2023-01-10T00:04:57.556Z,1.05
2023-01-10T00:10:02.686Z,0.95
2023-01-10T00:15:07.676Z,1.13
2023-01-10T00:20:12.818Z,1.00
2023-01-10T00:25:19.827Z,1.50
2023-01-10T00:35:27.085Z,1.17
2023-01-10T00:40:32.383Z,1.20
2023-01-10T00:45:36.199Z,1.83
2023-01-10T00:50:40.099Z,1.15
2023-01-10T00:55:45.361Z,1.40
2023-01-10T01:00:50.494Z,1.25
2023-01-10T01:05:54.173Z,1.55
2023-01-10T01:10:59.445Z,1.60
2023-01-10T01:16:03.395Z,1.20
2023-01-10T01:21:08.470Z,1.52
2023-01-10T01:26:13.511Z,1.42
2023-01-10T01:31:17.339Z,1.92
2023-01-10T01:36:21.234Z,1.90
2023-01-10T01:41:43.463Z,2.15
2023-01-10T01:46:51.223Z,1.63
2023-01-10T01:52:00.745Z,1.88
2023-01-10T01:57:11.697Z,2.08
2023-01-10T02:02:20.579Z,2.13
2023-01-10T02:07:27.305Z,1.67
2023-01-10T02:12:34.296Z,2.30
2023-01-10T02:17:38.505Z,2.00
2023-01-10T02:23:24.537Z,1.75
2023-01-10T02:29:18.355Z,1.87
2023-01-10T02:34:30.749Z,1.73
2023-01-10T02:39:44.626Z,1.90
2023-01-10T02:44:56.070Z,2.08
2023-01-10T02:50:29.197Z,2.22
2023-01-10T02:55:43.454Z,1.52
2023-01-10T03:00:52.682Z,2.20
2023-01-10T03:06:12.307Z,1.65
2023-01-10T03:11:16.369Z,1.40
2023-01-10T03:16:22.370Z,1.50
2023-01-10T03:21:29.394Z,2.08
2023-01-10T03:26:44.942Z,1.50
2023-01-10T03:31:53.105Z,1.83
2023-01-10T03:37:06.808Z,2.15
2023-01-10T03:42:16.851Z,1.58
2023-01-10T03:47:26.306Z,2.05
2023-01-10T03:52:33.629Z,1.60
2023-01-10T03:57:37.318Z,1.48
2023-01-10T04:02:41.328Z,2.35
2023-01-10T04:07:49.258Z,1.50
2023-01-10T04:12:52.984Z,2.17
2023-01-10T04:17:56.789Z,1.70
2023-01-10T04:23:01.872Z,1.80
2023-01-10T04:28:05.802Z,1.95
2023-01-10T04:33:11.552Z,2.58
2023-01-10T04:38:16.930Z,1.77
2023-01-10T04:43:20.691Z,1.67
2023-01-10T04:48:24.601Z,2.40
2023-01-10T04:53:29.714Z,2.00
2023-01-10T04:58:34.978Z,2.05
2023-01-10T05:03:39.131Z,1.90
2023-01-10T05:08:44.924Z,1.42
2023-01-10T05:13:51.381Z,1.95
2023-01-10T05:18:55.099Z,2.93
2023-01-10T05:24:00.191Z,1.95
2023-01-10T05:29:04.148Z,1.90
2023-01-10T05:34:08.594Z,2.15
2023-01-10T05:39:14.174Z,2.50
2023-01-10T05:44:18.074Z,2.15
2023-01-10T05:49:21.820Z,2.10
2023-01-10T05:54:26.862Z,2.25
2023-01-10T05:59:30.556Z,2.00
2023-01-10T06:04:34.212Z,1.70
2023-01-10T06:09:39.330Z,2.05
2023-01-10T06:14:43.049Z,1.95
2023-01-10T06:19:46.831Z,1.80
2023-01-10T06:24:51.855Z,2.10
2023-01-10T06:29:55.567Z,1.77
2023-01-10T06:34:59.246Z,2.35
2023-01-10T06:40:04.506Z,1.20
2023-01-10T06:45:08.935Z,2.05
2023-01-10T06:50:14.571Z,2.83
2023-01-10T06:55:19.663Z,2.05
2023-01-10T07:00:24.764Z,2.03
2023-01-10T07:05:29.131Z,2.20
2023-01-10T07:10:34.528Z,1.77
2023-01-10T07:15:38.266Z,1.80
2023-01-10T07:20:42.126Z,2.08
2023-01-10T07:25:47.172Z,2.55
2023-01-10T07:30:50.908Z,2.45
2023-01-10T07:35:54.712Z,1.98
2023-01-10T07:41:02.208Z,1.80
2023-01-10T07:46:09.649Z,1.40
2023-01-10T07:51:13.625Z,1.80
2023-01-10T07:56:18.632Z,2.08
2023-01-10T08:01:25.077Z,1.75
2023-01-10T08:06:29.058Z,1.58
2023-01-10T08:11:34.256Z,1.88
2023-01-10T08:16:38.069Z,2.03
2023-01-10T08:21:41.806Z,2.22
2023-01-10T08:26:46.857Z,2.08
2023-01-10T08:31:50.566Z,1.88
2023-01-10T08:36:55.023Z,1.77
2023-01-10T08:42:00.128Z,1.98
2023-01-10T08:47:03.791Z,2.33
2023-01-10T08:52:07.590Z,2.75
2023-01-10T08:57:12.593Z,2.03
2023-01-10T09:02:16.433Z,1.27
2023-01-10T09:07:22.691Z,2.55
2023-01-10T09:12:45.229Z,1.73
2023-01-10T09:17:49.855Z,1.75
2023-01-10T09:22:54.236Z,1.67
2023-01-10T09:28:00.459Z,1.70
2023-01-10T09:33:05.295Z,2.27
2023-01-10T09:38:12.703Z,1.58
2023-01-10T09:43:29.495Z,2.08
2023-01-10T09:48:43.963Z,2.00
2023-01-10T09:53:48.954Z,1.30
2023-01-10T09:58:56.495Z,1.85
2023-01-10T10:04:08.604Z,1.65
2023-01-10T10:09:16.466Z,1.60
2023-01-10T10:14:31.102Z,1.58
2023-01-10T10:19:48.601Z,1.98
2023-01-10T10:25:01.666Z,1.65
2023-01-10T10:30:19.763Z,2.25
2023-01-10T10:35:29.072Z,1.42
2023-01-10T10:40:38.022Z,1.85
2023-01-10T10:45:48.099Z,1.77
2023-01-10T10:51:06.614Z,1.70
2023-01-10T10:56:15.713Z,2.63
2023-01-10T11:01:21.407Z,1.55
2023-01-10T11:06:26.909Z,1.70
2023-01-10T11:11:34.032Z,2.13
2023-01-10T11:21:48.774Z,1.27
2023-01-10T11:26:53.507Z,2.17
2023-01-10T11:31:59.065Z,1.75
2023-01-10T11:37:05.207Z,2.08
2023-01-10T11:42:29.813Z,2.42
2023-01-10T11:47:41.645Z,1.70
2023-01-10T11:52:55.195Z,2.25
2023-01-10T11:58:02.485Z,1.40
2023-01-10T12:03:19.901Z,2.30
2023-01-10T12:08:32.000Z,1.98
2023-01-10T12:14:01.676Z,2.20
2023-01-10T12:19:16.732Z,1.50
2023-01-10T12:24:29.722Z,1.40
2023-01-10T12:29:37.881Z,1.95
2023-01-10T12:34:45.507Z,1.42
2023-01-10T12:39:56.730Z,2.13
2023-01-10T12:45:07.706Z,1.45
2023-01-10T12:50:18.219Z,1.65
2023-01-10T12:55:24.982Z,1.70
2023-01-10T13:00:40.582Z,2.35
2023-01-10T13:05:54.348Z,2.00
2023-01-10T13:11:00.565Z,2.35
2023-01-10T13:16:29.729Z,2.20
2023-01-10T13:21:36.192Z,1.00
2023-01-10T13:26:53.553Z,1.90
2023-01-10T13:31:59.450Z,1.70
2023-01-10T13:37:12.013Z,1.80
2023-01-10T13:42:52.984Z,1.52
2023-01-10T13:48:05.625Z,1.60
2023-01-10T13:53:45.285Z,1.77
2023-01-10T13:59:06.346Z,2.00
2023-01-10T14:04:20.967Z,2.63
2023-01-10T14:09:40.811Z,1.80
2023-01-10T14:14:52.465Z,2.03
2023-01-10T14:20:07.789Z,1.80
2023-01-10T14:25:20.930Z,2.33
2023-01-10T14:30:28.742Z,1.77
2023-01-10T14:35:38.802Z,1.77
2023-01-10T14:40:46.627Z,1.60
2023-01-10T14:45:57.062Z,1.80
2023-01-10T14:51:26.436Z,1.80
2023-01-10T14:56:38.589Z,1.30
2023-01-10T15:01:42.491Z,1.48
2023-01-10T15:06:54.514Z,1.40
2023-01-10T15:12:03.083Z,1.50
2023-01-10T15:17:09.857Z,1.08
2023-01-10T15:22:28.183Z,1.45
2023-01-10T15:27:37.205Z,1.20
2023-01-10T15:32:41.675Z,1.42
2023-01-10T15:37:52.503Z,1.20
2023-01-10T15:43:24.278Z,1.42
2023-01-10T15:48:33.861Z,1.30
2023-01-10T15:54:27.541Z,1.38
2023-01-10T15:59:35.438Z,1.23
2023-01-10T16:04:40.373Z,1.10
2023-01-10T16:09:49.063Z,1.00
2023-01-10T16:14:54.856Z,0.80
2023-01-10T16:19:58.758Z,0.43
2023-01-10T16:25:02.457Z,0.52
2023-01-10T16:30:15.615Z,0.70
2023-01-10T16:35:19.730Z,0.68
2023-01-10T16:40:27.570Z,0.85
2023-01-10T16:45:32.836Z,0.40
2023-01-10T16:50:36.617Z,0.70
2023-01-10T16:55:43.019Z,0.60
2023-01-10T17:00:50.806Z,0.57
2023-01-10T17:05:54.620Z,1.00
2023-01-10T17:11:02.267Z,0.70
2023-01-10T17:16:08.411Z,1.02
2023-01-10T17:21:16.498Z,1.37
2023-01-10T17:26:21.060Z,1.23
2023-01-10T17:31:26.364Z,1.10
2023-01-10T17:36:32.526Z,0.98
2023-01-10T17:41:36.591Z,1.23
2023-01-10T17:47:07.636Z,1.20
2023-01-10T17:52:11.625Z,1.35
2023-01-10T17:57:16.111Z,1.50
2023-01-10T18:02:21.436Z,1.83
2023-01-10T18:07:25.344Z,1.52
2023-01-10T18:12:29.062Z,1.30
2023-01-10T18:17:34.198Z,1.33
2023-01-10T18:22:57.128Z,1.13
2023-01-10T18:28:00.845Z,1.33
2023-01-10T18:33:06.184Z,1.05
2023-01-10T18:38:10.159Z,1.33
2023-01-10T18:43:15.881Z,1.40
2023-01-10T18:48:24.396Z,0.90
2023-01-10T18:53:29.842Z,1.52
2023-01-10T18:58:35.242Z,1.40
2023-01-10T19:03:40.962Z,1.38
2023-01-10T19:08:45.578Z,1.50
2023-01-10T19:13:51.367Z,1.35
2023-01-10T19:18:57.935Z,1.73
2023-01-10T19:24:05.663Z,1.73
2023-01-10T19:29:09.495Z,1.70
2023-01-10T19:34:15.204Z,1.73
2023-01-10T19:39:18.906Z,2.10
2023-01-10T19:44:22.609Z,2.00
2023-01-10T19:49:30.839Z,2.13
2023-01-10T19:54:37.470Z,1.83
2023-01-10T19:59:41.750Z,2.20
2023-01-10T20:04:47.027Z,2.28
2023-01-10T20:09:50.979Z,2.53
2023-01-10T20:14:55.231Z,2.40
2023-01-10T20:20:00.897Z,2.30
2023-01-10T20:25:04.655Z,2.30
2023-01-10T20:30:13.956Z,2.38
2023-01-10T20:35:22.036Z,2.63
2023-01-10T20:40:26.118Z,2.50
2023-01-10T20:45:29.915Z,2.42
2023-01-10T20:50:34.946Z,3.13
2023-01-10T20:55:39.168Z,2.55
2023-01-10T21:00:42.887Z,2.80
2023-01-10T21:05:52.021Z,2.10
2023-01-10T21:10:55.812Z,2.83
2023-01-10T21:15:59.802Z,2.47
2023-01-10T21:21:05.071Z,2.63
2023-01-10T21:26:11.319Z,2.65
2023-01-10T21:31:16.446Z,3.03
2023-01-10T21:36:21.688Z,2.30
2023-01-10T21:41:42.713Z,1.83
2023-01-10T21:46:48.783Z,2.63
2023-01-10T21:51:54.030Z,2.88
2023-01-10T21:56:57.693Z,2.90
2023-01-10T22:02:01.464Z,2.97
2023-01-10T22:07:06.652Z,3.33
2023-01-10T22:12:10.839Z,3.22
2023-01-10T22:17:14.800Z,2.60
2023-01-10T22:22:20.011Z,2.40
2023-01-10T22:27:26.377Z,2.63
2023-01-10T22:32:30.088Z,2.50
2023-01-10T22:37:35.301Z,2.42
2023-01-10T22:42:39.023Z,2.88
2023-01-10T22:47:42.721Z,2.40
2023-01-10T22:52:54.626Z,2.72
2023-01-10T22:58:00.600Z,2.28
2023-01-10T23:03:04.307Z,2.63
2023-01-10T23:08:11.444Z,2.47
2023-01-10T23:18:19.639Z,1.95
2023-01-10T23:23:25.927Z,2.33
2023-01-10T23:28:30.163Z,2.27
2023-01-10T23:33:34.426Z,2.35
2023-01-10T23:38:39.664Z,2.13
2023-01-10T23:43:43.628Z,2.00
2023-01-10T23:48:48.418Z,2.20
2023-01-10T23:53:53.460Z,2.08
2023-01-10T23:58:57.157Z,2.25
